sensor_id;sensor_type;location;lat;lon;timestamp;P1;P2;P0
37290;PMS5003;23175;-33.706;151.094;2022-10-22T00:02:13;2;2;
37290;PMS5003;23175;-33.706;151.094;2022-10-22T00:04:43;1;1;
37290;PMS5003;23175;-33.706;151.094;2022-10-22T00:07:14;2;1;
37290;PMS5003;23175;-33.706;151.094;2022-10-22T00:09:45;2;2;
37290;PMS5003;23175;-33.706;151.094;2022-10-22T00:12:16;5;3;
37290;PMS5003;23175;-33.706;151.094;2022-10-22T00:14:46;2;2;
37290;PMS5003;23175;-33.706;151.094;2022-10-22T00:17:15;3;2;
37290;PMS5003;23175;-33.706;151.094;2022-10-22T00:19:46;2;2;
37290;PMS5003;23175;-33.706;151.094;2022-10-22T00:22:16;3;1;
37290;PMS5003;23175;-33.706;151.094;2022-10-22T00:24:46;3;1;
37290;PMS5003;23175;-33.706;151.094;2022-10-22T00:27:16;0;0;
37290;PMS5003;23175;-33.706;151.094;2022-10-22T00:29:46;0;0;
37290;PMS5003;23175;-33.706;151.094;2022-10-22T00:32:17;2;2;
37290;PMS5003;23175;-33.706;151.094;2022-10-22T00:34:47;1;1;
37290;PMS5003;23175;-33.706;151.094;2022-10-22T00:37:17;2;2;
37290;PMS5003;23175;-33.706;151.094;2022-10-22T00:39:47;0;0;
37290;PMS5003;23175;-33.706;151.094;2022-10-22T00:42:18;1;1;
37290;PMS5003;23175;-33.706;151.094;2022-10-22T00:45:03;3;3;
37290;PMS5003;23175;-33.706;151.094;2022-10-22T00:47:43;0;0;
37290;PMS5003;23175;-33.706;151.094;2022-10-22T00:50:19;0;0;
37290;PMS5003;23175;-33.706;151.094;2022-10-22T00:52:53;2;1;
37290;PMS5003;23175;-33.706;151.094;2022-10-22T00:55:25;0;0;
37290;PMS5003;23175;-33.706;151.094;2022-10-22T00:57:57;0;0;
37290;PMS5003;23175;-33.706;151.094;2022-10-22T01:00:28;2;2;
37290;PMS5003;23175;-33.706;151.094;2022-10-22T01:02:58;1;1;
37290;PMS5003;23175;-33.706;151.094;2022-10-22T01:05:29;0;0;
37290;PMS5003;23175;-33.706;151.094;2022-10-22T01:08:06;1;0;
37290;PMS5003;23175;-33.706;151.094;2022-10-22T01:10:53;0;0;
37290;PMS5003;23175;-33.706;151.094;2022-10-22T01:13:36;1;1;
37290;PMS5003;23175;-33.706;151.094;2022-10-22T01:16:22;1;1;
37290;PMS5003;23175;-33.706;151.094;2022-10-22T01:19:03;0;0;
37290;PMS5003;23175;-33.706;151.094;2022-10-22T01:21:51;2;2;
37290;PMS5003;23175;-33.706;151.094;2022-10-22T01:24:32;5;2;
37290;PMS5003;23175;-33.706;151.094;2022-10-22T01:27:14;3;1;
37290;PMS5003;23175;-33.706;151.094;2022-10-22T01:29:54;0;0;
37290;PMS5003;23175;-33.706;151.094;2022-10-22T01:32:28;0;0;
37290;PMS5003;23175;-33.706;151.094;2022-10-22T01:35:03;3;2;
37290;PMS5003;23175;-33.706;151.094;2022-10-22T01:37:39;1;1;
37290;PMS5003;23175;-33.706;151.094;2022-10-22T01:40:14;1;1;
37290;PMS5003;23175;-33.706;151.094;2022-10-22T01:42:54;1;1;
37290;PMS5003;23175;-33.706;151.094;2022-10-22T01:45:26;2;2;
37290;PMS5003;23175;-33.706;151.094;2022-10-22T01:48:02;3;3;
37290;PMS5003;23175;-33.706;151.094;2022-10-22T01:50:49;3;2;
37290;PMS5003;23175;-33.706;151.094;2022-10-22T01:53:36;1;1;
37290;PMS5003;23175;-33.706;151.094;2022-10-22T01:56:19;0;0;
37290;PMS5003;23175;-33.706;151.094;2022-10-22T01:59:02;2;2;
37290;PMS5003;23175;-33.706;151.094;2022-10-22T02:01:36;2;2;
37290;PMS5003;23175;-33.706;151.094;2022-10-22T02:04:16;4;2;
37290;PMS5003;23175;-33.706;151.094;2022-10-22T02:06:48;2;2;
37290;PMS5003;23175;-33.706;151.094;2022-10-22T02:09:21;0;0;
37290;PMS5003;23175;-33.706;151.094;2022-10-22T02:11:54;2;2;
37290;PMS5003;23175;-33.706;151.094;2022-10-22T02:14:25;4;2;
37290;PMS5003;23175;-33.706;151.094;2022-10-22T02:17:05;4;3;
37290;PMS5003;23175;-33.706;151.094;2022-10-22T02:19:40;2;2;
37290;PMS5003;23175;-33.706;151.094;2022-10-22T02:22:17;4;2;
37290;PMS5003;23175;-33.706;151.094;2022-10-22T02:24:48;3;3;
37290;PMS5003;23175;-33.706;151.094;2022-10-22T02:27:19;3;3;
37290;PMS5003;23175;-33.706;151.094;2022-10-22T02:29:54;4;2;
37290;PMS5003;23175;-33.706;151.094;2022-10-22T02:32:29;4;1;
37290;PMS5003;23175;-33.706;151.094;2022-10-22T02:35:04;2;2;
37290;PMS5003;23175;-33.706;151.094;2022-10-22T02:37:36;2;2;
37290;PMS5003;23175;-33.706;151.094;2022-10-22T02:40:08;6;3;
37290;PMS5003;23175;-33.706;151.094;2022-10-22T02:42:39;5;4;
37290;PMS5003;23175;-33.706;151.094;2022-10-22T02:45:11;7;4;
37290;PMS5003;23175;-33.706;151.094;2022-10-22T02:47:41;7;3;
37290;PMS5003;23175;-33.706;151.094;2022-10-22T02:50:11;3;3;
37290;PMS5003;23175;-33.706;151.094;2022-10-22T02:52:41;4;4;
37290;PMS5003;23175;-33.706;151.094;2022-10-22T02:55:11;4;3;
37290;PMS5003;23175;-33.706;151.094;2022-10-22T02:57:41;4;3;
37290;PMS5003;23175;-33.706;151.094;2022-10-22T03:00:11;3;3;
37290;PMS5003;23175;-33.706;151.094;2022-10-22T03:02:42;4;3;
37290;PMS5003;23175;-33.706;151.094;2022-10-22T03:05:12;3;3;
37290;PMS5003;23175;-33.706;151.094;2022-10-22T03:11:20;11;7;
37290;PMS5003;23175;-33.706;151.094;2022-10-22T03:13:50;3;2;
37290;PMS5003;23175;-33.706;151.094;2022-10-22T03:16:20;5;3;
37290;PMS5003;23175;-33.706;151.094;2022-10-22T03:18:50;5;4;
37290;PMS5003;23175;-33.706;151.094;2022-10-22T03:21:23;5;5;
37290;PMS5003;23175;-33.706;151.094;2022-10-22T03:23:57;2;2;
37290;PMS5003;23175;-33.706;151.094;2022-10-22T03:26:30;7;4;
37290;PMS5003;23175;-33.706;151.094;2022-10-22T03:29:01;8;5;
37290;PMS5003;23175;-33.706;151.094;2022-10-22T03:31:32;4;4;
37290;PMS5003;23175;-33.706;151.094;2022-10-22T03:34:01;6;4;
37290;PMS5003;23175;-33.706;151.094;2022-10-22T03:36:31;9;8;
37290;PMS5003;23175;-33.706;151.094;2022-10-22T03:39:02;13;9;
37290;PMS5003;23175;-33.706;151.094;2022-10-22T03:41:34;7;7;
37290;PMS5003;23175;-33.706;151.094;2022-10-22T03:44:04;11;9;
37290;PMS5003;23175;-33.706;151.094;2022-10-22T03:46:34;19;17;
37290;PMS5003;23175;-33.706;151.094;2022-10-22T03:49:04;8;7;
37290;PMS5003;23175;-33.706;151.094;2022-10-22T03:51:35;27;24;
37290;PMS5003;23175;-33.706;151.094;2022-10-22T03:54:05;31;25;
37290;PMS5003;23175;-33.706;151.094;2022-10-22T03:56:35;21;16;
37290;PMS5003;23175;-33.706;151.094;2022-10-22T03:59:06;9;7;
37290;PMS5003;23175;-33.706;151.094;2022-10-22T04:01:36;15;10;
37290;PMS5003;23175;-33.706;151.094;2022-10-22T04:04:07;7;4;
37290;PMS5003;23175;-33.706;151.094;2022-10-22T04:06:37;8;5;
37290;PMS5003;23175;-33.706;151.094;2022-10-22T04:09:07;4;4;
37290;PMS5003;23175;-33.706;151.094;2022-10-22T04:11:37;6;4;
37290;PMS5003;23175;-33.706;151.094;2022-10-22T04:14:07;3;3;
37290;PMS5003;23175;-33.706;151.094;2022-10-22T04:16:38;5;3;
37290;PMS5003;23175;-33.706;151.094;2022-10-22T04:19:10;10;7;
37290;PMS5003;23175;-33.706;151.094;2022-10-22T04:21:42;20;19;
37290;PMS5003;23175;-33.706;151.094;2022-10-22T04:24:11;17;17;
37290;PMS5003;23175;-33.706;151.094;2022-10-22T04:26:42;5;3;
37290;PMS5003;23175;-33.706;151.094;2022-10-22T04:29:12;6;3;
37290;PMS5003;23175;-33.706;151.094;2022-10-22T04:31:43;10;4;
37290;PMS5003;23175;-33.706;151.094;2022-10-22T04:34:13;4;4;
37290;PMS5003;23175;-33.706;151.094;2022-10-22T04:36:42;6;3;
37290;PMS5003;23175;-33.706;151.094;2022-10-22T04:39:13;7;4;
37290;PMS5003;23175;-33.706;151.094;2022-10-22T04:41:42;8;7;
37290;PMS5003;23175;-33.706;151.094;2022-10-22T04:44:13;5;5;
37290;PMS5003;23175;-33.706;151.094;2022-10-22T04:46:42;7;4;
37290;PMS5003;23175;-33.706;151.094;2022-10-22T04:49:13;4;2;
37290;PMS5003;23175;-33.706;151.094;2022-10-22T04:51:42;11;4;
37290;PMS5003;23175;-33.706;151.094;2022-10-22T04:54:14;5;4;
37290;PMS5003;23175;-33.706;151.094;2022-10-22T04:56:44;9;6;
37290;PMS5003;23175;-33.706;151.094;2022-10-22T04:59:14;5;4;
37290;PMS5003;23175;-33.706;151.094;2022-10-22T05:01:44;6;5;
37290;PMS5003;23175;-33.706;151.094;2022-10-22T05:04:15;11;3;
37290;PMS5003;23175;-33.706;151.094;2022-10-22T05:06:45;7;4;
37290;PMS5003;23175;-33.706;151.094;2022-10-22T05:09:15;9;5;
37290;PMS5003;23175;-33.706;151.094;2022-10-22T05:11:48;11;4;
37290;PMS5003;23175;-33.706;151.094;2022-10-22T05:14:20;7;3;
37290;PMS5003;23175;-33.706;151.094;2022-10-22T05:16:52;4;3;
37290;PMS5003;23175;-33.706;151.094;2022-10-22T05:19:23;6;4;
37290;PMS5003;23175;-33.706;151.094;2022-10-22T05:21:56;8;5;
37290;PMS5003;23175;-33.706;151.094;2022-10-22T05:24:28;11;6;
37290;PMS5003;23175;-33.706;151.094;2022-10-22T05:27:00;5;5;
37290;PMS5003;23175;-33.706;151.094;2022-10-22T05:29:30;6;5;
37290;PMS5003;23175;-33.706;151.094;2022-10-22T05:32:00;12;6;
37290;PMS5003;23175;-33.706;151.094;2022-10-22T05:34:30;10;9;
37290;PMS5003;23175;-33.706;151.094;2022-10-22T05:37:00;12;6;
37290;PMS5003;23175;-33.706;151.094;2022-10-22T05:39:30;7;5;
37290;PMS5003;23175;-33.706;151.094;2022-10-22T05:42:00;6;5;
37290;PMS5003;23175;-33.706;151.094;2022-10-22T05:44:30;11;8;
37290;PMS5003;23175;-33.706;151.094;2022-10-22T05:46:59;8;4;
37290;PMS5003;23175;-33.706;151.094;2022-10-22T05:49:35;6;4;
37290;PMS5003;23175;-33.706;151.094;2022-10-22T05:52:05;7;5;
37290;PMS5003;23175;-33.706;151.094;2022-10-22T05:54:35;7;4;
37290;PMS5003;23175;-33.706;151.094;2022-10-22T05:57:05;10;8;
37290;PMS5003;23175;-33.706;151.094;2022-10-22T05:59:35;14;7;
37290;PMS5003;23175;-33.706;151.094;2022-10-22T06:02:05;11;5;
37290;PMS5003;23175;-33.706;151.094;2022-10-22T06:04:36;6;6;
37290;PMS5003;23175;-33.706;151.094;2022-10-22T06:07:07;8;5;
37290;PMS5003;23175;-33.706;151.094;2022-10-22T06:09:41;9;5;
37290;PMS5003;23175;-33.706;151.094;2022-10-22T06:12:11;7;4;
37290;PMS5003;23175;-33.706;151.094;2022-10-22T06:14:42;11;7;
37290;PMS5003;23175;-33.706;151.094;2022-10-22T06:17:13;9;5;
37290;PMS5003;23175;-33.706;151.094;2022-10-22T06:19:43;10;7;
37290;PMS5003;23175;-33.706;151.094;2022-10-22T06:22:13;8;7;
37290;PMS5003;23175;-33.706;151.094;2022-10-22T06:24:43;12;7;
37290;PMS5003;23175;-33.706;151.094;2022-10-22T06:27:14;22;17;
37290;PMS5003;23175;-33.706;151.094;2022-10-22T06:29:44;10;10;
37290;PMS5003;23175;-33.706;151.094;2022-10-22T06:32:15;20;14;
37290;PMS5003;23175;-33.706;151.094;2022-10-22T06:34:46;16;8;
37290;PMS5003;23175;-33.706;151.094;2022-10-22T06:37:15;17;15;
37290;PMS5003;23175;-33.706;151.094;2022-10-22T06:39:45;8;7;
37290;PMS5003;23175;-33.706;151.094;2022-10-22T06:42:15;14;9;
37290;PMS5003;23175;-33.706;151.094;2022-10-22T06:44:45;8;6;
37290;PMS5003;23175;-33.706;151.094;2022-10-22T06:47:15;12;6;
37290;PMS5003;23175;-33.706;151.094;2022-10-22T06:49:45;13;6;
37290;PMS5003;23175;-33.706;151.094;2022-10-22T06:52:16;14;7;
37290;PMS5003;23175;-33.706;151.094;2022-10-22T06:54:46;10;9;
37290;PMS5003;23175;-33.706;151.094;2022-10-22T06:57:16;10;6;
37290;PMS5003;23175;-33.706;151.094;2022-10-22T06:59:47;15;12;
37290;PMS5003;23175;-33.706;151.094;2022-10-22T07:02:18;18;12;
37290;PMS5003;23175;-33.706;151.094;2022-10-22T07:04:48;13;7;
37290;PMS5003;23175;-33.706;151.094;2022-10-22T07:07:18;10;6;
37290;PMS5003;23175;-33.706;151.094;2022-10-22T07:09:48;9;6;
37290;PMS5003;23175;-33.706;151.094;2022-10-22T07:12:18;8;6;
37290;PMS5003;23175;-33.706;151.094;2022-10-22T07:14:48;11;6;
37290;PMS5003;23175;-33.706;151.094;2022-10-22T07:17:18;4;4;
37290;PMS5003;23175;-33.706;151.094;2022-10-22T07:19:48;8;5;
37290;PMS5003;23175;-33.706;151.094;2022-10-22T07:22:19;12;8;
37290;PMS5003;23175;-33.706;151.094;2022-10-22T07:24:48;11;8;
37290;PMS5003;23175;-33.706;151.094;2022-10-22T07:27:19;11;6;
37290;PMS5003;23175;-33.706;151.094;2022-10-22T07:29:49;7;4;
37290;PMS5003;23175;-33.706;151.094;2022-10-22T07:32:19;13;9;
37290;PMS5003;23175;-33.706;151.094;2022-10-22T07:34:49;12;12;
37290;PMS5003;23175;-33.706;151.094;2022-10-22T07:37:19;13;11;
37290;PMS5003;23175;-33.706;151.094;2022-10-22T07:39:50;9;8;
37290;PMS5003;23175;-33.706;151.094;2022-10-22T07:42:20;10;7;
37290;PMS5003;23175;-33.706;151.094;2022-10-22T07:44:50;12;8;
37290;PMS5003;23175;-33.706;151.094;2022-10-22T07:47:20;12;7;
37290;PMS5003;23175;-33.706;151.094;2022-10-22T07:49:50;17;9;
37290;PMS5003;23175;-33.706;151.094;2022-10-22T07:52:20;8;6;
37290;PMS5003;23175;-33.706;151.094;2022-10-22T07:54:50;13;10;
37290;PMS5003;23175;-33.706;151.094;2022-10-22T07:57:19;17;11;
37290;PMS5003;23175;-33.706;151.094;2022-10-22T07:59:50;14;9;
37290;PMS5003;23175;-33.706;151.094;2022-10-22T08:02:20;13;10;
37290;PMS5003;23175;-33.706;151.094;2022-10-22T08:04:50;10;8;
37290;PMS5003;23175;-33.706;151.094;2022-10-22T08:07:20;10;7;
37290;PMS5003;23175;-33.706;151.094;2022-10-22T08:09:50;8;7;
37290;PMS5003;23175;-33.706;151.094;2022-10-22T08:12:19;5;5;
37290;PMS5003;23175;-33.706;151.094;2022-10-22T08:14:49;11;6;
37290;PMS5003;23175;-33.706;151.094;2022-10-22T08:17:19;9;6;
37290;PMS5003;23175;-33.706;151.094;2022-10-22T08:19:49;10;7;
37290;PMS5003;23175;-33.706;151.094;2022-10-22T08:22:19;13;5;
37290;PMS5003;23175;-33.706;151.094;2022-10-22T08:24:49;6;6;
37290;PMS5003;23175;-33.706;151.094;2022-10-22T08:27:20;5;5;
37290;PMS5003;23175;-33.706;151.094;2022-10-22T08:29:50;8;7;
37290;PMS5003;23175;-33.706;151.094;2022-10-22T08:32:20;7;4;
37290;PMS5003;23175;-33.706;151.094;2022-10-22T08:34:50;7;7;
37290;PMS5003;23175;-33.706;151.094;2022-10-22T08:37:20;9;6;
37290;PMS5003;23175;-33.706;151.094;2022-10-22T08:39:50;7;6;
37290;PMS5003;23175;-33.706;151.094;2022-10-22T08:42:26;10;5;
37290;PMS5003;23175;-33.706;151.094;2022-10-22T08:45:18;11;6;
37290;PMS5003;23175;-33.706;151.094;2022-10-22T08:48:03;11;8;
37290;PMS5003;23175;-33.706;151.094;2022-10-22T08:50:47;9;7;
37290;PMS5003;23175;-33.706;151.094;2022-10-22T08:53:21;10;8;
37290;PMS5003;23175;-33.706;151.094;2022-10-22T08:56:04;13;10;
37290;PMS5003;23175;-33.706;151.094;2022-10-22T08:58:35;10;9;
37290;PMS5003;23175;-33.706;151.094;2022-10-22T09:01:11;18;14;
37290;PMS5003;23175;-33.706;151.094;2022-10-22T09:03:47;11;10;
37290;PMS5003;23175;-33.706;151.094;2022-10-22T09:06:23;13;10;
37290;PMS5003;23175;-33.706;151.094;2022-10-22T09:08:56;10;10;
37290;PMS5003;23175;-33.706;151.094;2022-10-22T09:11:30;11;9;
37290;PMS5003;23175;-33.706;151.094;2022-10-22T09:14:02;12;9;
37290;PMS5003;23175;-33.706;151.094;2022-10-22T09:16:35;8;8;
37290;PMS5003;23175;-33.706;151.094;2022-10-22T09:19:13;10;8;
37290;PMS5003;23175;-33.706;151.094;2022-10-22T09:21:51;9;9;
37290;PMS5003;23175;-33.706;151.094;2022-10-22T09:24:30;12;10;
37290;PMS5003;23175;-33.706;151.094;2022-10-22T09:27:08;11;10;
37290;PMS5003;23175;-33.706;151.094;2022-10-22T09:29:43;11;11;
37290;PMS5003;23175;-33.706;151.094;2022-10-22T09:32:15;11;9;
37290;PMS5003;23175;-33.706;151.094;2022-10-22T09:34:53;12;11;
37290;PMS5003;23175;-33.706;151.094;2022-10-22T09:37:26;9;8;
37290;PMS5003;23175;-33.706;151.094;2022-10-22T09:39:57;10;10;
37290;PMS5003;23175;-33.706;151.094;2022-10-22T09:42:32;12;8;
37290;PMS5003;23175;-33.706;151.094;2022-10-22T09:45:03;14;11;
37290;PMS5003;23175;-33.706;151.094;2022-10-22T09:47:35;12;12;
37290;PMS5003;23175;-33.706;151.094;2022-10-22T09:50:12;8;8;
37290;PMS5003;23175;-33.706;151.094;2022-10-22T09:52:58;10;8;
37290;PMS5003;23175;-33.706;151.094;2022-10-22T09:55:31;12;9;
37290;PMS5003;23175;-33.706;151.094;2022-10-22T09:58:02;9;9;
37290;PMS5003;23175;-33.706;151.094;2022-10-22T10:00:32;11;10;
37290;PMS5003;23175;-33.706;151.094;2022-10-22T10:03:04;13;12;
37290;PMS5003;23175;-33.706;151.094;2022-10-22T10:05:43;9;9;
37290;PMS5003;23175;-33.706;151.094;2022-10-22T10:08:19;8;8;
37290;PMS5003;23175;-33.706;151.094;2022-10-22T10:10:50;9;9;
37290;PMS5003;23175;-33.706;151.094;2022-10-22T10:13:32;8;8;
37290;PMS5003;23175;-33.706;151.094;2022-10-22T10:16:19;9;8;
37290;PMS5003;23175;-33.706;151.094;2022-10-22T10:19:01;9;8;
37290;PMS5003;23175;-33.706;151.094;2022-10-22T10:21:53;15;11;
37290;PMS5003;23175;-33.706;151.094;2022-10-22T10:24:31;14;12;
37290;PMS5003;23175;-33.706;151.094;2022-10-22T10:27:23;11;10;
37290;PMS5003;23175;-33.706;151.094;2022-10-22T10:30:00;12;11;
37290;PMS5003;23175;-33.706;151.094;2022-10-22T10:32:41;12;11;
37290;PMS5003;23175;-33.706;151.094;2022-10-22T10:35:20;11;11;
37290;PMS5003;23175;-33.706;151.094;2022-10-22T10:37:57;11;11;
37290;PMS5003;23175;-33.706;151.094;2022-10-22T10:40:46;19;17;
37290;PMS5003;23175;-33.706;151.094;2022-10-22T10:43:19;11;9;
37290;PMS5003;23175;-33.706;151.094;2022-10-22T10:45:58;14;12;
37290;PMS5003;23175;-33.706;151.094;2022-10-22T10:48:37;12;11;
37290;PMS5003;23175;-33.706;151.094;2022-10-22T10:51:21;13;12;
37290;PMS5003;23175;-33.706;151.094;2022-10-22T10:54:10;16;13;
37290;PMS5003;23175;-33.706;151.094;2022-10-22T10:56:50;14;13;
37290;PMS5003;23175;-33.706;151.094;2022-10-22T10:59:30;15;15;
37290;PMS5003;23175;-33.706;151.094;2022-10-22T11:02:30;13;12;
37290;PMS5003;23175;-33.706;151.094;2022-10-22T11:05:28;14;12;
37290;PMS5003;23175;-33.706;151.094;2022-10-22T11:08:05;12;12;
37290;PMS5003;23175;-33.706;151.094;2022-10-22T11:10:43;14;11;
37290;PMS5003;23175;-33.706;151.094;2022-10-22T11:13:18;13;12;
37290;PMS5003;23175;-33.706;151.094;2022-10-22T11:15:55;14;12;
37290;PMS5003;23175;-33.706;151.094;2022-10-22T11:18:33;12;12;
37290;PMS5003;23175;-33.706;151.094;2022-10-22T11:21:09;13;13;
37290;PMS5003;23175;-33.706;151.094;2022-10-22T11:23:47;15;14;
37290;PMS5003;23175;-33.706;151.094;2022-10-22T11:26:26;16;14;
37290;PMS5003;23175;-33.706;151.094;2022-10-22T11:29:02;13;13;
37290;PMS5003;23175;-33.706;151.094;2022-10-22T11:31:37;17;16;
37290;PMS5003;23175;-33.706;151.094;2022-10-22T11:34:12;14;14;
37290;PMS5003;23175;-33.706;151.094;2022-10-22T11:36:46;12;12;
37290;PMS5003;23175;-33.706;151.094;2022-10-22T11:39:32;12;12;
37290;PMS5003;23175;-33.706;151.094;2022-10-22T11:42:09;14;12;
37290;PMS5003;23175;-33.706;151.094;2022-10-22T11:44:46;16;14;
37290;PMS5003;23175;-33.706;151.094;2022-10-22T11:47:27;11;11;
37290;PMS5003;23175;-33.706;151.094;2022-10-22T11:50:01;16;14;
37290;PMS5003;23175;-33.706;151.094;2022-10-22T11:52:52;11;11;
37290;PMS5003;23175;-33.706;151.094;2022-10-22T11:55:33;17;14;
37290;PMS5003;23175;-33.706;151.094;2022-10-22T11:58:44;14;13;
37290;PMS5003;23175;-33.706;151.094;2022-10-22T12:01:27;14;12;
37290;PMS5003;23175;-33.706;151.094;2022-10-22T12:04:19;19;12;
37290;PMS5003;23175;-33.706;151.094;2022-10-22T12:06:55;15;12;
37290;PMS5003;23175;-33.706;151.094;2022-10-22T12:09:27;20;18;
37290;PMS5003;23175;-33.706;151.094;2022-10-22T12:12:08;18;13;
37290;PMS5003;23175;-33.706;151.094;2022-10-22T12:14:51;13;11;
37290;PMS5003;23175;-33.706;151.094;2022-10-22T12:17:23;15;12;
37290;PMS5003;23175;-33.706;151.094;2022-10-22T12:19:58;13;13;
37290;PMS5003;23175;-33.706;151.094;2022-10-22T12:22:34;11;11;
37290;PMS5003;23175;-33.706;151.094;2022-10-22T12:25:08;15;12;
37290;PMS5003;23175;-33.706;151.094;2022-10-22T12:27:48;15;12;
37290;PMS5003;23175;-33.706;151.094;2022-10-22T12:30:20;14;13;
37290;PMS5003;23175;-33.706;151.094;2022-10-22T12:32:52;21;15;
37290;PMS5003;23175;-33.706;151.094;2022-10-22T12:35:25;16;13;
37290;PMS5003;23175;-33.706;151.094;2022-10-22T12:37:57;13;12;
37290;PMS5003;23175;-33.706;151.094;2022-10-22T12:40:29;16;13;
37290;PMS5003;23175;-33.706;151.094;2022-10-22T12:43:06;12;11;
37290;PMS5003;23175;-33.706;151.094;2022-10-22T12:45:41;12;11;
37290;PMS5003;23175;-33.706;151.094;2022-10-22T12:48:14;13;10;
37290;PMS5003;23175;-33.706;151.094;2022-10-22T12:50:47;13;10;
37290;PMS5003;23175;-33.706;151.094;2022-10-22T12:53:20;12;12;
37290;PMS5003;23175;-33.706;151.094;2022-10-22T12:55:54;12;9;
37290;PMS5003;23175;-33.706;151.094;2022-10-22T12:58:28;13;13;
37290;PMS5003;23175;-33.706;151.094;2022-10-22T13:01:05;15;11;
37290;PMS5003;23175;-33.706;151.094;2022-10-22T13:03:40;12;11;
37290;PMS5003;23175;-33.706;151.094;2022-10-22T13:06:19;16;11;
37290;PMS5003;23175;-33.706;151.094;2022-10-22T13:09:05;13;12;
37290;PMS5003;23175;-33.706;151.094;2022-10-22T13:11:41;10;8;
37290;PMS5003;23175;-33.706;151.094;2022-10-22T13:14:19;17;15;
37290;PMS5003;23175;-33.706;151.094;2022-10-22T13:17:03;11;7;
37290;PMS5003;23175;-33.706;151.094;2022-10-22T13:19:37;10;8;
37290;PMS5003;23175;-33.706;151.094;2022-10-22T13:22:26;9;7;
37290;PMS5003;23175;-33.706;151.094;2022-10-22T13:25:03;10;8;
37290;PMS5003;23175;-33.706;151.094;2022-10-22T13:27:53;11;9;
37290;PMS5003;23175;-33.706;151.094;2022-10-22T13:30:26;14;10;
37290;PMS5003;23175;-33.706;151.094;2022-10-22T13:32:58;7;7;
37290;PMS5003;23175;-33.706;151.094;2022-10-22T13:35:31;10;9;
37290;PMS5003;23175;-33.706;151.094;2022-10-22T13:38:05;6;6;
37290;PMS5003;23175;-33.706;151.094;2022-10-22T13:40:45;9;9;
37290;PMS5003;23175;-33.706;151.094;2022-10-22T13:43:15;7;7;
37290;PMS5003;23175;-33.706;151.094;2022-10-22T13:45:46;9;6;
37290;PMS5003;23175;-33.706;151.094;2022-10-22T13:48:20;10;7;
37290;PMS5003;23175;-33.706;151.094;2022-10-22T13:50:52;10;10;
37290;PMS5003;23175;-33.706;151.094;2022-10-22T13:53:22;8;6;
37290;PMS5003;23175;-33.706;151.094;2022-10-22T13:55:54;7;6;
37290;PMS5003;23175;-33.706;151.094;2022-10-22T13:58:24;19;13;
37290;PMS5003;23175;-33.706;151.094;2022-10-22T14:00:55;8;8;
37290;PMS5003;23175;-33.706;151.094;2022-10-22T14:03:28;18;13;
37290;PMS5003;23175;-33.706;151.094;2022-10-22T14:05:59;8;8;
37290;PMS5003;23175;-33.706;151.094;2022-10-22T14:08:30;10;7;
37290;PMS5003;23175;-33.706;151.094;2022-10-22T14:11:00;6;6;
37290;PMS5003;23175;-33.706;151.094;2022-10-22T14:13:30;8;5;
37290;PMS5003;23175;-33.706;151.094;2022-10-22T14:16:00;9;6;
37290;PMS5003;23175;-33.706;151.094;2022-10-22T14:18:31;7;7;
37290;PMS5003;23175;-33.706;151.094;2022-10-22T14:21:02;6;6;
37290;PMS5003;23175;-33.706;151.094;2022-10-22T14:23:34;8;5;
37290;PMS5003;23175;-33.706;151.094;2022-10-22T14:26:17;7;5;
37290;PMS5003;23175;-33.706;151.094;2022-10-22T14:28:50;7;5;
37290;PMS5003;23175;-33.706;151.094;2022-10-22T14:31:20;7;6;
37290;PMS5003;23175;-33.706;151.094;2022-10-22T14:33:50;6;4;
37290;PMS5003;23175;-33.706;151.094;2022-10-22T14:36:20;9;6;
37290;PMS5003;23175;-33.706;151.094;2022-10-22T14:38:50;6;6;
37290;PMS5003;23175;-33.706;151.094;2022-10-22T14:41:20;7;7;
37290;PMS5003;23175;-33.706;151.094;2022-10-22T14:43:51;10;7;
37290;PMS5003;23175;-33.706;151.094;2022-10-22T14:46:21;11;6;
37290;PMS5003;23175;-33.706;151.094;2022-10-22T14:48:51;12;8;
37290;PMS5003;23175;-33.706;151.094;2022-10-22T14:51:21;10;9;
37290;PMS5003;23175;-33.706;151.094;2022-10-22T14:53:51;7;4;
37290;PMS5003;23175;-33.706;151.094;2022-10-22T14:56:22;9;7;
37290;PMS5003;23175;-33.706;151.094;2022-10-22T14:58:51;10;7;
37290;PMS5003;23175;-33.706;151.094;2022-10-22T15:01:22;11;8;
37290;PMS5003;23175;-33.706;151.094;2022-10-22T15:03:52;10;7;
37290;PMS5003;23175;-33.706;151.094;2022-10-22T15:06:22;9;7;
37290;PMS5003;23175;-33.706;151.094;2022-10-22T15:08:52;8;6;
37290;PMS5003;23175;-33.706;151.094;2022-10-22T15:11:21;10;9;
37290;PMS5003;23175;-33.706;151.094;2022-10-22T15:13:52;8;6;
37290;PMS5003;23175;-33.706;151.094;2022-10-22T15:16:22;8;6;
37290;PMS5003;23175;-33.706;151.094;2022-10-22T15:18:52;9;7;
37290;PMS5003;23175;-33.706;151.094;2022-10-22T15:21:22;11;6;
37290;PMS5003;23175;-33.706;151.094;2022-10-22T15:23:52;5;5;
37290;PMS5003;23175;-33.706;151.094;2022-10-22T15:26:22;7;4;
37290;PMS5003;23175;-33.706;151.094;2022-10-22T15:28:52;8;7;
37290;PMS5003;23175;-33.706;151.094;2022-10-22T15:31:41;6;4;
37290;PMS5003;23175;-33.706;151.094;2022-10-22T15:34:17;8;8;
37290;PMS5003;23175;-33.706;151.094;2022-10-22T15:36:52;11;7;
37290;PMS5003;23175;-33.706;151.094;2022-10-22T15:39:24;10;5;
37290;PMS5003;23175;-33.706;151.094;2022-10-22T15:41:55;10;6;
37290;PMS5003;23175;-33.706;151.094;2022-10-22T15:44:26;5;5;
37290;PMS5003;23175;-33.706;151.094;2022-10-22T15:46:57;10;7;
37290;PMS5003;23175;-33.706;151.094;2022-10-22T15:49:29;7;6;
37290;PMS5003;23175;-33.706;151.094;2022-10-22T15:52:01;5;5;
37290;PMS5003;23175;-33.706;151.094;2022-10-22T15:54:32;6;4;
37290;PMS5003;23175;-33.706;151.094;2022-10-22T15:57:02;9;6;
37290;PMS5003;23175;-33.706;151.094;2022-10-22T15:59:32;7;4;
37290;PMS5003;23175;-33.706;151.094;2022-10-22T16:02:02;5;4;
37290;PMS5003;23175;-33.706;151.094;2022-10-22T16:04:32;5;3;
37290;PMS5003;23175;-33.706;151.094;2022-10-22T16:07:03;8;5;
37290;PMS5003;23175;-33.706;151.094;2022-10-22T16:09:33;5;5;
37290;PMS5003;23175;-33.706;151.094;2022-10-22T16:12:03;9;4;
37290;PMS5003;23175;-33.706;151.094;2022-10-22T16:14:33;8;6;
37290;PMS5003;23175;-33.706;151.094;2022-10-22T16:17:03;10;4;
37290;PMS5003;23175;-33.706;151.094;2022-10-22T16:19:33;7;5;
37290;PMS5003;23175;-33.706;151.094;2022-10-22T16:22:03;6;4;
37290;PMS5003;23175;-33.706;151.094;2022-10-22T16:24:33;4;4;
37290;PMS5003;23175;-33.706;151.094;2022-10-22T16:27:03;13;10;
37290;PMS5003;23175;-33.706;151.094;2022-10-22T16:29:34;8;6;
37290;PMS5003;23175;-33.706;151.094;2022-10-22T16:32:05;6;5;
37290;PMS5003;23175;-33.706;151.094;2022-10-22T16:34:35;8;4;